sensor_id;sensor_type;location;lat;lon;timestamp;P1;durP1;ratioP1;P2;durP2;ratioP2
54641;SDS011;40536;53.194;5.728;2022-12-10T00:01:19;892.33;;;718.15;;
54641;SDS011;40536;53.194;5.728;2022-12-10T00:03:46;841.00;;;702.25;;
54641;SDS011;40536;53.194;5.728;2022-12-10T00:06:13;921.85;;;723.15;;
54641;SDS011;40536;53.194;5.728;2022-12-10T00:08:40;774.92;;;683.38;;
54641;SDS011;40536;53.194;5.728;2022-12-10T00:11:08;739.60;;;659.58;;
54641;SDS011;40536;53.194;5.728;2022-12-10T00:13:36;761.40;;;678.22;;
54641;SDS011;40536;53.194;5.728;2022-12-10T00:16:02;755.95;;;665.95;;
54641;SDS011;40536;53.194;5.728;2022-12-10T00:18:30;717.33;;;640.08;;
54641;SDS011;40536;53.194;5.728;2022-12-10T00:20:56;707.05;;;633.25;;
54641;SDS011;40536;53.194;5.728;2022-12-10T00:23:22;710.88;;;633.13;;
54641;SDS011;40536;53.194;5.728;2022-12-10T00:25:48;720.92;;;645.88;;
54641;SDS011;40536;53.194;5.728;2022-12-10T00:28:14;632.85;;;575.33;;
54641;SDS011;40536;53.194;5.728;2022-12-10T00:30:39;679.45;;;608.38;;
54641;SDS011;40536;53.194;5.728;2022-12-10T00:33:05;683.47;;;612.03;;
54641;SDS011;40536;53.194;5.728;2022-12-10T00:35:31;687.05;;;610.35;;
54641;SDS011;40536;53.194;5.728;2022-12-10T00:38:00;705.00;;;631.90;;
54641;SDS011;40536;53.194;5.728;2022-12-10T00:40:26;614.33;;;556.42;;
54641;SDS011;40536;53.194;5.728;2022-12-10T00:42:52;626.72;;;565.20;;
54641;SDS011;40536;53.194;5.728;2022-12-10T00:45:17;574.45;;;522.80;;
54641;SDS011;40536;53.194;5.728;2022-12-10T00:47:44;557.88;;;507.88;;
54641;SDS011;40536;53.194;5.728;2022-12-10T00:50:09;550.53;;;498.33;;
54641;SDS011;40536;53.194;5.728;2022-12-10T00:52:35;564.45;;;512.20;;
54641;SDS011;40536;53.194;5.728;2022-12-10T00:55:01;567.53;;;513.42;;
54641;SDS011;40536;53.194;5.728;2022-12-10T00:57:27;596.67;;;536.85;;
54641;SDS011;40536;53.194;5.728;2022-12-10T00:59:53;564.42;;;508.08;;
54641;SDS011;40536;53.194;5.728;2022-12-10T01:02:18;507.98;;;460.00;;
54641;SDS011;40536;53.194;5.728;2022-12-10T01:04:44;449.05;;;406.00;;
54641;SDS011;40536;53.194;5.728;2022-12-10T01:07:10;442.70;;;398.33;;
54641;SDS011;40536;53.194;5.728;2022-12-10T01:09:36;471.27;;;421.95;;
54641;SDS011;40536;53.194;5.728;2022-12-10T01:12:02;481.65;;;430.63;;
54641;SDS011;40536;53.194;5.728;2022-12-10T01:14:29;528.50;;;459.23;;
54641;SDS011;40536;53.194;5.728;2022-12-10T01:17:01;547.92;;;494.35;;
54641;SDS011;40536;53.194;5.728;2022-12-10T01:19:28;501.70;;;451.92;;
54641;SDS011;40536;53.194;5.728;2022-12-10T01:21:54;463.70;;;419.10;;
54641;SDS011;40536;53.194;5.728;2022-12-10T01:24:21;447.38;;;406.38;;
54641;SDS011;40536;53.194;5.728;2022-12-10T01:26:48;456.85;;;416.63;;
54641;SDS011;40536;53.194;5.728;2022-12-10T01:29:14;455.67;;;417.08;;
54641;SDS011;40536;53.194;5.728;2022-12-10T01:31:40;433.13;;;392.55;;
54641;SDS011;40536;53.194;5.728;2022-12-10T01:34:07;438.98;;;396.67;;
54641;SDS011;40536;53.194;5.728;2022-12-10T01:36:37;521.15;;;476.48;;
54641;SDS011;40536;53.194;5.728;2022-12-10T01:39:09;460.92;;;418.63;;
54641;SDS011;40536;53.194;5.728;2022-12-10T01:41:38;447.80;;;406.95;;
54641;SDS011;40536;53.194;5.728;2022-12-10T01:46:35;444.08;;;405.20;;
54641;SDS011;40536;53.194;5.728;2022-12-10T01:49:07;497.00;;;447.25;;
54641;SDS011;40536;53.194;5.728;2022-12-10T01:51:36;480.58;;;434.27;;
54641;SDS011;40536;53.194;5.728;2022-12-10T01:54:04;484.52;;;437.98;;
54641;SDS011;40536;53.194;5.728;2022-12-10T01:56:34;491.85;;;444.33;;
54641;SDS011;40536;53.194;5.728;2022-12-10T01:59:03;424.00;;;384.63;;
54641;SDS011;40536;53.194;5.728;2022-12-10T02:01:32;458.42;;;416.30;;
54641;SDS011;40536;53.194;5.728;2022-12-10T02:04:21;515.33;;;465.77;;
54641;SDS011;40536;53.194;5.728;2022-12-10T02:09:49;476.35;;;433.60;;
54641;SDS011;40536;53.194;5.728;2022-12-10T02:12:37;494.88;;;449.55;;
54641;SDS011;40536;53.194;5.728;2022-12-10T02:15:22;558.15;;;502.60;;
54641;SDS011;40536;53.194;5.728;2022-12-10T02:17:58;554.85;;;500.45;;
54641;SDS011;40536;53.194;5.728;2022-12-10T02:20:31;537.05;;;485.85;;
54641;SDS011;40536;53.194;5.728;2022-12-10T02:23:03;530.90;;;482.07;;
54641;SDS011;40536;53.194;5.728;2022-12-10T02:31:03;553.05;;;500.80;;
54641;SDS011;40536;53.194;5.728;2022-12-10T02:33:30;547.50;;;495.98;;
54641;SDS011;40536;53.194;5.728;2022-12-10T02:35:57;579.53;;;525.67;;
54641;SDS011;40536;53.194;5.728;2022-12-10T02:38:29;543.90;;;491.77;;
54641;SDS011;40536;53.194;5.728;2022-12-10T02:40:57;515.72;;;467.58;;
54641;SDS011;40536;53.194;5.728;2022-12-10T02:43:31;538.22;;;489.92;;
54641;SDS011;40536;53.194;5.728;2022-12-10T02:45:58;505.30;;;457.08;;
54641;SDS011;40536;53.194;5.728;2022-12-10T02:48:27;510.45;;;468.00;;
54641;SDS011;40536;53.194;5.728;2022-12-10T02:50:53;517.33;;;472.38;;
54641;SDS011;40536;53.194;5.728;2022-12-10T02:53:19;556.13;;;509.67;;
54641;SDS011;40536;53.194;5.728;2022-12-10T02:55:47;560.08;;;511.27;;
54641;SDS011;40536;53.194;5.728;2022-12-10T03:04:01;583.30;;;530.88;;
54641;SDS011;40536;53.194;5.728;2022-12-10T03:06:42;549.75;;;495.73;;
54641;SDS011;40536;53.194;5.728;2022-12-10T03:09:26;540.80;;;489.02;;
54641;SDS011;40536;53.194;5.728;2022-12-10T03:12:07;534.20;;;483.73;;
54641;SDS011;40536;53.194;5.728;2022-12-10T03:15:01;526.53;;;472.23;;
54641;SDS011;40536;53.194;5.728;2022-12-10T03:17:30;543.42;;;484.77;;
54641;SDS011;40536;53.194;5.728;2022-12-10T03:19:57;546.47;;;493.85;;
54641;SDS011;40536;53.194;5.728;2022-12-10T03:22:25;579.13;;;516.97;;
54641;SDS011;40536;53.194;5.728;2022-12-10T03:24:53;540.38;;;485.58;;
54641;SDS011;40536;53.194;5.728;2022-12-10T03:27:19;590.97;;;528.75;;
54641;SDS011;40536;53.194;5.728;2022-12-10T03:29:50;648.92;;;576.35;;
54641;SDS011;40536;53.194;5.728;2022-12-10T03:32:22;618.00;;;552.03;;
54641;SDS011;40536;53.194;5.728;2022-12-10T03:34:51;551.83;;;498.40;;
54641;SDS011;40536;53.194;5.728;2022-12-10T03:37:19;697.53;;;584.67;;
54641;SDS011;40536;53.194;5.728;2022-12-10T03:39:50;577.47;;;522.05;;
54641;SDS011;40536;53.194;5.728;2022-12-10T03:42:16;833.65;;;630.17;;
54641;SDS011;40536;53.194;5.728;2022-12-10T03:44:42;839.22;;;643.72;;
54641;SDS011;40536;53.194;5.728;2022-12-10T03:47:09;692.33;;;616.88;;
54641;SDS011;40536;53.194;5.728;2022-12-10T03:49:39;811.33;;;625.67;;
54641;SDS011;40536;53.194;5.728;2022-12-10T03:52:05;722.00;;;598.92;;
54641;SDS011;40536;53.194;5.728;2022-12-10T03:54:31;917.03;;;649.95;;
54641;SDS011;40536;53.194;5.728;2022-12-10T03:56:57;779.38;;;638.28;;
54641;SDS011;40536;53.194;5.728;2022-12-10T03:59:23;853.50;;;640.50;;
54641;SDS011;40536;53.194;5.728;2022-12-10T04:01:48;1048.32;;;692.97;;
54641;SDS011;40536;53.194;5.728;2022-12-10T04:04:14;918.28;;;661.25;;
54641;SDS011;40536;53.194;5.728;2022-12-10T04:06:40;698.10;;;625.30;;
54641;SDS011;40536;53.194;5.728;2022-12-10T04:09:08;678.28;;;602.80;;
54641;SDS011;40536;53.194;5.728;2022-12-10T04:11:35;707.95;;;625.90;;
54641;SDS011;40536;53.194;5.728;2022-12-10T04:14:01;707.08;;;599.28;;
54641;SDS011;40536;53.194;5.728;2022-12-10T04:16:45;974.83;;;643.67;;
54641;SDS011;40536;53.194;5.728;2022-12-10T04:19:12;967.70;;;645.35;;
54641;SDS011;40536;53.194;5.728;2022-12-10T04:21:39;930.35;;;640.25;;
54641;SDS011;40536;53.194;5.728;2022-12-10T04:24:25;993.53;;;646.25;;
54641;SDS011;40536;53.194;5.728;2022-12-10T04:27:12;737.63;;;589.60;;
54641;SDS011;40536;53.194;5.728;2022-12-10T04:29:42;765.58;;;618.80;;
54641;SDS011;40536;53.194;5.728;2022-12-10T04:32:08;670.55;;;565.03;;
54641;SDS011;40536;53.194;5.728;2022-12-10T04:34:34;884.65;;;627.38;;
54641;SDS011;40536;53.194;5.728;2022-12-10T04:37:01;777.22;;;585.72;;
54641;SDS011;40536;53.194;5.728;2022-12-10T04:39:28;902.83;;;615.80;;
54641;SDS011;40536;53.194;5.728;2022-12-10T04:41:54;916.35;;;613.50;;
54641;SDS011;40536;53.194;5.728;2022-12-10T04:44:20;834.22;;;606.55;;
54641;SDS011;40536;53.194;5.728;2022-12-10T04:46:46;743.90;;;585.42;;
54641;SDS011;40536;53.194;5.728;2022-12-10T04:49:13;777.83;;;607.25;;
54641;SDS011;40536;53.194;5.728;2022-12-10T04:51:39;669.40;;;589.85;;
54641;SDS011;40536;53.194;5.728;2022-12-10T04:54:05;668.10;;;576.22;;
54641;SDS011;40536;53.194;5.728;2022-12-10T04:56:32;649.53;;;576.88;;
54641;SDS011;40536;53.194;5.728;2022-12-10T04:58:58;601.22;;;511.30;;
54641;SDS011;40536;53.194;5.728;2022-12-10T05:01:27;520.40;;;464.63;;
54641;SDS011;40536;53.194;5.728;2022-12-10T05:03:53;630.38;;;552.70;;
54641;SDS011;40536;53.194;5.728;2022-12-10T05:06:19;592.38;;;521.65;;
54641;SDS011;40536;53.194;5.728;2022-12-10T05:08:45;675.45;;;601.05;;
54641;SDS011;40536;53.194;5.728;2022-12-10T05:11:16;709.13;;;569.28;;
54641;SDS011;40536;53.194;5.728;2022-12-10T05:13:44;588.58;;;526.80;;
54641;SDS011;40536;53.194;5.728;2022-12-10T05:16:11;648.88;;;542.60;;
54641;SDS011;40536;53.194;5.728;2022-12-10T05:18:38;683.13;;;583.28;;
54641;SDS011;40536;53.194;5.728;2022-12-10T05:21:05;693.60;;;587.97;;
54641;SDS011;40536;53.194;5.728;2022-12-10T05:23:33;629.33;;;545.58;;
54641;SDS011;40536;53.194;5.728;2022-12-10T05:26:10;794.25;;;615.63;;
54641;SDS011;40536;53.194;5.728;2022-12-10T05:28:45;794.03;;;607.63;;
54641;SDS011;40536;53.194;5.728;2022-12-10T05:31:18;623.15;;;540.72;;
54641;SDS011;40536;53.194;5.728;2022-12-10T05:33:45;709.10;;;610.78;;
54641;SDS011;40536;53.194;5.728;2022-12-10T05:36:14;760.47;;;588.35;;
54641;SDS011;40536;53.194;5.728;2022-12-10T05:38:41;630.13;;;561.67;;
54641;SDS011;40536;53.194;5.728;2022-12-10T05:41:14;672.08;;;594.45;;
54641;SDS011;40536;53.194;5.728;2022-12-10T05:43:42;677.90;;;578.33;;
54641;SDS011;40536;53.194;5.728;2022-12-10T05:46:10;614.40;;;546.92;;
54641;SDS011;40536;53.194;5.728;2022-12-10T05:48:39;719.25;;;564.45;;
54641;SDS011;40536;53.194;5.728;2022-12-10T05:51:05;703.00;;;553.60;;
54641;SDS011;40536;53.194;5.728;2022-12-10T05:53:32;690.67;;;555.00;;
54641;SDS011;40536;53.194;5.728;2022-12-10T05:55:59;618.83;;;541.20;;
54641;SDS011;40536;53.194;5.728;2022-12-10T05:58:26;661.95;;;575.65;;
54641;SDS011;40536;53.194;5.728;2022-12-10T06:00:52;588.75;;;525.22;;
54641;SDS011;40536;53.194;5.728;2022-12-10T06:03:18;634.20;;;567.00;;
54641;SDS011;40536;53.194;5.728;2022-12-10T06:05:44;659.58;;;538.30;;
54641;SDS011;40536;53.194;5.728;2022-12-10T06:08:09;587.72;;;524.72;;
54641;SDS011;40536;53.194;5.728;2022-12-10T06:10:35;678.95;;;560.58;;
54641;SDS011;40536;53.194;5.728;2022-12-10T06:13:02;739.45;;;586.38;;
54641;SDS011;40536;53.194;5.728;2022-12-10T06:15:28;678.80;;;570.60;;
54641;SDS011;40536;53.194;5.728;2022-12-10T06:17:55;648.55;;;541.17;;
54641;SDS011;40536;53.194;5.728;2022-12-10T06:20:21;704.72;;;588.00;;
54641;SDS011;40536;53.194;5.728;2022-12-10T06:22:47;581.63;;;518.60;;
54641;SDS011;40536;53.194;5.728;2022-12-10T06:25:13;636.13;;;523.58;;
54641;SDS011;40536;53.194;5.728;2022-12-10T06:27:39;673.15;;;532.22;;
54641;SDS011;40536;53.194;5.728;2022-12-10T06:30:05;635.88;;;544.90;;
54641;SDS011;40536;53.194;5.728;2022-12-10T06:32:31;683.10;;;562.38;;
54641;SDS011;40536;53.194;5.728;2022-12-10T06:34:57;558.10;;;498.40;;
54641;SDS011;40536;53.194;5.728;2022-12-10T06:37:22;600.40;;;538.80;;
54641;SDS011;40536;53.194;5.728;2022-12-10T06:39:50;804.65;;;604.88;;
54641;SDS011;40536;53.194;5.728;2022-12-10T06:42:17;796.85;;;594.08;;
54641;SDS011;40536;53.194;5.728;2022-12-10T06:44:43;717.75;;;578.25;;
54641;SDS011;40536;53.194;5.728;2022-12-10T06:47:09;822.92;;;629.35;;
54641;SDS011;40536;53.194;5.728;2022-12-10T06:49:35;762.63;;;597.22;;
54641;SDS011;40536;53.194;5.728;2022-12-10T06:52:01;710.72;;;607.20;;
54641;SDS011;40536;53.194;5.728;2022-12-10T06:54:28;783.13;;;634.70;;
54641;SDS011;40536;53.194;5.728;2022-12-10T06:56:54;682.85;;;608.85;;
54641;SDS011;40536;53.194;5.728;2022-12-10T06:59:20;667.40;;;596.13;;
54641;SDS011;40536;53.194;5.728;2022-12-10T07:01:46;670.83;;;601.70;;
54641;SDS011;40536;53.194;5.728;2022-12-10T07:04:11;664.92;;;588.97;;
54641;SDS011;40536;53.194;5.728;2022-12-10T07:06:38;799.50;;;605.92;;
54641;SDS011;40536;53.194;5.728;2022-12-10T07:09:04;648.17;;;578.13;;
54641;SDS011;40536;53.194;5.728;2022-12-10T07:11:30;793.08;;;601.75;;
54641;SDS011;40536;53.194;5.728;2022-12-10T07:13:56;657.63;;;586.70;;
54641;SDS011;40536;53.194;5.728;2022-12-10T07:16:24;666.33;;;583.53;;
54641;SDS011;40536;53.194;5.728;2022-12-10T07:18:52;604.10;;;544.63;;
54641;SDS011;40536;53.194;5.728;2022-12-10T07:23:46;594.67;;;531.80;;
54641;SDS011;40536;53.194;5.728;2022-12-10T07:26:12;687.45;;;618.15;;
54641;SDS011;40536;53.194;5.728;2022-12-10T07:28:38;676.63;;;603.10;;
54641;SDS011;40536;53.194;5.728;2022-12-10T07:31:04;770.28;;;616.55;;
54641;SDS011;40536;53.194;5.728;2022-12-10T07:33:31;791.80;;;619.17;;
54641;SDS011;40536;53.194;5.728;2022-12-10T07:35:58;754.42;;;610.75;;
54641;SDS011;40536;53.194;5.728;2022-12-10T07:38:23;696.05;;;592.45;;
54641;SDS011;40536;53.194;5.728;2022-12-10T07:40:50;846.95;;;644.28;;
54641;SDS011;40536;53.194;5.728;2022-12-10T07:43:16;577.35;;;520.42;;
54641;SDS011;40536;53.194;5.728;2022-12-10T07:45:42;717.15;;;589.58;;
54641;SDS011;40536;53.194;5.728;2022-12-10T07:48:09;662.38;;;582.63;;
54641;SDS011;40536;53.194;5.728;2022-12-10T07:50:35;648.45;;;571.03;;
54641;SDS011;40536;53.194;5.728;2022-12-10T07:53:01;611.35;;;548.38;;
54641;SDS011;40536;53.194;5.728;2022-12-10T07:55:26;649.50;;;580.80;;
54641;SDS011;40536;53.194;5.728;2022-12-10T07:57:52;737.80;;;612.60;;
54641;SDS011;40536;53.194;5.728;2022-12-10T08:00:18;687.75;;;607.55;;
54641;SDS011;40536;53.194;5.728;2022-12-10T08:02:43;785.50;;;625.72;;
54641;SDS011;40536;53.194;5.728;2022-12-10T08:05:09;640.70;;;574.10;;
54641;SDS011;40536;53.194;5.728;2022-12-10T08:07:35;660.95;;;593.42;;
54641;SDS011;40536;53.194;5.728;2022-12-10T08:10:02;723.60;;;624.17;;
54641;SDS011;40536;53.194;5.728;2022-12-10T08:12:28;701.05;;;620.35;;
54641;SDS011;40536;53.194;5.728;2022-12-10T08:14:53;803.47;;;649.40;;
54641;SDS011;40536;53.194;5.728;2022-12-10T08:17:19;871.75;;;646.88;;
54641;SDS011;40536;53.194;5.728;2022-12-10T08:19:45;713.17;;;623.67;;
54641;SDS011;40536;53.194;5.728;2022-12-10T08:22:11;837.63;;;666.97;;
54641;SDS011;40536;53.194;5.728;2022-12-10T08:24:37;736.88;;;657.28;;
54641;SDS011;40536;53.194;5.728;2022-12-10T08:27:02;763.42;;;666.22;;
54641;SDS011;40536;53.194;5.728;2022-12-10T08:29:28;770.70;;;663.20;;
54641;SDS011;40536;53.194;5.728;2022-12-10T08:31:54;743.58;;;646.95;;
54641;SDS011;40536;53.194;5.728;2022-12-10T08:34:20;788.35;;;669.50;;
54641;SDS011;40536;53.194;5.728;2022-12-10T08:36:46;736.22;;;636.67;;
54641;SDS011;40536;53.194;5.728;2022-12-10T08:39:14;794.65;;;663.05;;
54641;SDS011;40536;53.194;5.728;2022-12-10T08:41:42;750.35;;;666.22;;
54641;SDS011;40536;53.194;5.728;2022-12-10T08:44:11;732.40;;;653.03;;
54641;SDS011;40536;53.194;5.728;2022-12-10T08:46:37;879.50;;;676.78;;
54641;SDS011;40536;53.194;5.728;2022-12-10T08:49:03;794.75;;;644.70;;
54641;SDS011;40536;53.194;5.728;2022-12-10T08:51:29;734.28;;;626.03;;
54641;SDS011;40536;53.194;5.728;2022-12-10T08:53:57;865.17;;;661.50;;
54641;SDS011;40536;53.194;5.728;2022-12-10T08:56:23;679.85;;;611.08;;
54641;SDS011;40536;53.194;5.728;2022-12-10T08:58:49;716.13;;;636.20;;
54641;SDS011;40536;53.194;5.728;2022-12-10T09:01:17;687.80;;;615.50;;
54641;SDS011;40536;53.194;5.728;2022-12-10T09:03:43;725.33;;;638.83;;
54641;SDS011;40536;53.194;5.728;2022-12-10T09:06:11;757.05;;;625.38;;
54641;SDS011;40536;53.194;5.728;2022-12-10T09:08:39;710.38;;;634.63;;
54641;SDS011;40536;53.194;5.728;2022-12-10T09:11:08;650.38;;;587.38;;
54641;SDS011;40536;53.194;5.728;2022-12-10T09:13:37;665.20;;;598.22;;
54641;SDS011;40536;53.194;5.728;2022-12-10T09:16:03;726.95;;;625.00;;
54641;SDS011;40536;53.194;5.728;2022-12-10T09:18:29;684.20;;;616.05;;
54641;SDS011;40536;53.194;5.728;2022-12-10T09:20:54;682.33;;;611.47;;
54641;SDS011;40536;53.194;5.728;2022-12-10T09:23:20;697.60;;;626.22;;
54641;SDS011;40536;53.194;5.728;2022-12-10T09:25:46;648.72;;;585.50;;
54641;SDS011;40536;53.194;5.728;2022-12-10T09:28:14;659.17;;;594.03;;
54641;SDS011;40536;53.194;5.728;2022-12-10T09:30:40;665.47;;;600.70;;
54641;SDS011;40536;53.194;5.728;2022-12-10T09:33:06;682.90;;;616.55;;
54641;SDS011;40536;53.194;5.728;2022-12-10T09:35:32;692.65;;;620.83;;
54641;SDS011;40536;53.194;5.728;2022-12-10T09:37:58;662.70;;;596.30;;
54641;SDS011;40536;53.194;5.728;2022-12-10T09:40:41;657.63;;;592.25;;
54641;SDS011;40536;53.194;5.728;2022-12-10T09:48:59;625.92;;;563.03;;
54641;SDS011;40536;53.194;5.728;2022-12-10T09:51:48;681.40;;;604.97;;
54641;SDS011;40536;53.194;5.728;2022-12-10T09:54:40;652.20;;;586.40;;
54641;SDS011;40536;53.194;5.728;2022-12-10T09:57:25;656.28;;;591.40;;
54641;SDS011;40536;53.194;5.728;2022-12-10T09:59:55;648.67;;;586.05;;
54641;SDS011;40536;53.194;5.728;2022-12-10T10:02:26;665.88;;;599.90;;
54641;SDS011;40536;53.194;5.728;2022-12-10T10:04:56;663.35;;;593.80;;
54641;SDS011;40536;53.194;5.728;2022-12-10T10:07:37;654.90;;;585.05;;
54641;SDS011;40536;53.194;5.728;2022-12-10T10:15:52;663.75;;;598.55;;
54641;SDS011;40536;53.194;5.728;2022-12-10T10:18:24;630.30;;;569.33;;
54641;SDS011;40536;53.194;5.728;2022-12-10T10:20:54;636.35;;;573.38;;
54641;SDS011;40536;53.194;5.728;2022-12-10T10:23:21;644.72;;;579.60;;
54641;SDS011;40536;53.194;5.728;2022-12-10T10:25:47;631.28;;;565.97;;
54641;SDS011;40536;53.194;5.728;2022-12-10T10:28:14;646.63;;;581.38;;
54641;SDS011;40536;53.194;5.728;2022-12-10T10:30:47;624.88;;;562.42;;
54641;SDS011;40536;53.194;5.728;2022-12-10T10:33:14;648.50;;;581.45;;
54641;SDS011;40536;53.194;5.728;2022-12-10T10:35:53;643.33;;;579.88;;
54641;SDS011;40536;53.194;5.728;2022-12-10T10:38:22;618.65;;;555.15;;
54641;SDS011;40536;53.194;5.728;2022-12-10T10:40:53;642.88;;;576.05;;
54641;SDS011;40536;53.194;5.728;2022-12-10T10:43:39;677.22;;;604.45;;
54641;SDS011;40536;53.194;5.728;2022-12-10T10:46:17;648.38;;;584.70;;
54641;SDS011;40536;53.194;5.728;2022-12-10T10:48:47;670.83;;;600.42;;
54641;SDS011;40536;53.194;5.728;2022-12-10T10:53:44;666.17;;;597.83;;
54641;SDS011;40536;53.194;5.728;2022-12-10T10:56:16;632.05;;;567.53;;
54641;SDS011;40536;53.194;5.728;2022-12-10T11:01:47;604.22;;;543.72;;
54641;SDS011;40536;53.194;5.728;2022-12-10T11:04:14;578.20;;;524.75;;
54641;SDS011;40536;53.194;5.728;2022-12-10T11:06:42;562.17;;;511.50;;
54641;SDS011;40536;53.194;5.728;2022-12-10T11:09:21;589.78;;;529.72;;
54641;SDS011;40536;53.194;5.728;2022-12-10T11:11:56;587.50;;;536.83;;
54641;SDS011;40536;53.194;5.728;2022-12-10T11:14:26;593.47;;;541.25;;
54641;SDS011;40536;53.194;5.728;2022-12-10T11:19:36;576.90;;;524.13;;
54641;SDS011;40536;53.194;5.728;2022-12-10T11:22:19;579.00;;;525.97;;
54641;SDS011;40536;53.194;5.728;2022-12-10T11:24:49;589.42;;;535.47;;
54641;SDS011;40536;53.194;5.728;2022-12-10T11:30:12;550.50;;;505.40;;
54641;SDS011;40536;53.194;5.728;2022-12-10T11:38:05;587.90;;;533.92;;
54641;SDS011;40536;53.194;5.728;2022-12-10T11:40:45;596.33;;;537.78;;
54641;SDS011;40536;53.194;5.728;2022-12-10T11:43:37;580.95;;;527.15;;
54641;SDS011;40536;53.194;5.728;2022-12-10T11:46:46;584.13;;;530.78;;
54641;SDS011;40536;53.194;5.728;2022-12-10T11:49:25;595.42;;;538.97;;
54641;SDS011;40536;53.194;5.728;2022-12-10T12:00:21;636.50;;;572.30;;
54641;SDS011;40536;53.194;5.728;2022-12-10T12:09:05;647.53;;;580.35;;
54641;SDS011;40536;53.194;5.728;2022-12-10T12:11:51;627.35;;;568.97;;
54641;SDS011;40536;53.194;5.728;2022-12-10T12:14:24;660.85;;;594.67;;
54641;SDS011;40536;53.194;5.728;2022-12-10T12:19:47;672.03;;;603.63;;
54641;SDS011;40536;53.194;5.728;2022-12-10T12:22:27;702.97;;;628.83;;
54641;SDS011;40536;53.194;5.728;2022-12-10T12:25:00;746.63;;;638.83;;
54641;SDS011;40536;53.194;5.728;2022-12-10T12:30:06;679.70;;;609.45;;
54641;SDS011;40536;53.194;5.728;2022-12-10T12:32:45;704.58;;;628.53;;
54641;SDS011;40536;53.194;5.728;2022-12-10T12:35:27;718.33;;;639.63;;
54641;SDS011;40536;53.194;5.728;2022-12-10T12:38:49;810.13;;;642.05;;
54641;SDS011;40536;53.194;5.728;2022-12-10T12:41:05;706.00;;;628.90;;
54641;SDS011;40536;53.194;5.728;2022-12-10T12:43:44;709.30;;;632.95;;
54641;SDS011;40536;53.194;5.728;2022-12-10T12:46:19;709.92;;;633.22;;
54641;SDS011;40536;53.194;5.728;2022-12-10T12:49:09;731.92;;;625.38;;
54641;SDS011;40536;53.194;5.728;2022-12-10T12:51:45;693.45;;;617.75;;
54641;SDS011;40536;53.194;5.728;2022-12-10T12:54:18;669.30;;;597.80;;
54641;SDS011;40536;53.194;5.728;2022-12-10T13:12:29;703.05;;;622.72;;
54641;SDS011;40536;53.194;5.728;2022-12-10T13:23:30;634.42;;;572.55;;
54641;SDS011;40536;53.194;5.728;2022-12-10T13:25:59;677.47;;;591.33;;
54641;SDS011;40536;53.194;5.728;2022-12-10T13:37:02;638.30;;;574.38;;
54641;SDS011;40536;53.194;5.728;2022-12-10T13:56:16;674.95;;;602.30;;
54641;SDS011;40536;53.194;5.728;2022-12-10T13:58:47;632.30;;;571.05;;
54641;SDS011;40536;53.194;5.728;2022-12-10T14:06:25;668.60;;;594.63;;
54641;SDS011;40536;53.194;5.728;2022-12-10T14:11:49;639.65;;;579.67;;
54641;SDS011;40536;53.194;5.728;2022-12-10T14:14:30;641.15;;;576.78;;
54641;SDS011;40536;53.194;5.728;2022-12-10T14:17:00;677.25;;;608.58;;
54641;SDS011;40536;53.194;5.728;2022-12-10T14:19:30;694.60;;;622.10;;
54641;SDS011;40536;53.194;5.728;2022-12-10T14:21:57;675.20;;;605.25;;
54641;SDS011;40536;53.194;5.728;2022-12-10T14:24:31;645.10;;;582.00;;
54641;SDS011;40536;53.194;5.728;2022-12-10T14:27:05;639.95;;;580.42;;
54641;SDS011;40536;53.194;5.728;2022-12-10T14:29:50;639.00;;;583.13;;
54641;SDS011;40536;53.194;5.728;2022-12-10T14:32:29;633.13;;;574.85;;
54641;SDS011;40536;53.194;5.728;2022-12-10T14:34:56;625.95;;;573.78;;
54641;SDS011;40536;53.194;5.728;2022-12-10T14:37:25;635.83;;;576.70;;
54641;SDS011;40536;53.194;5.728;2022-12-10T14:39:52;638.47;;;581.20;;
54641;SDS011;40536;53.194;5.728;2022-12-10T14:42:19;648.65;;;587.05;;
54641;SDS011;40536;53.194;5.728;2022-12-10T14:44:45;644.35;;;586.78;;
54641;SDS011;40536;53.194;5.728;2022-12-10T14:47:15;646.33;;;592.50;;
54641;SDS011;40536;53.194;5.728;2022-12-10T14:49:46;632.70;;;577.03;;
54641;SDS011;40536;53.194;5.728;2022-12-10T14:52:17;633.13;;;580.47;;
54641;SDS011;40536;53.194;5.728;2022-12-10T14:54:48;644.17;;;588.63;;
54641;SDS011;40536;53.194;5.728;2022-12-10T14:57:27;625.22;;;571.15;;
54641;SDS011;40536;53.194;5.728;2022-12-10T15:00:06;625.67;;;571.25;;
54641;SDS011;40536;53.194;5.728;2022-12-10T15:02:34;633.47;;;576.22;;
54641;SDS011;40536;53.194;5.728;2022-12-10T15:05:09;630.30;;;576.80;;
54641;SDS011;40536;53.194;5.728;2022-12-10T15:07:40;620.92;;;571.20;;
54641;SDS011;40536;53.194;5.728;2022-12-10T15:10:07;632.42;;;575.67;;
54641;SDS011;40536;53.194;5.728;2022-12-10T15:12:43;627.17;;;576.97;;
54641;SDS011;40536;53.194;5.728;2022-12-10T15:15:22;625.35;;;567.17;;
54641;SDS011;40536;53.194;5.728;2022-12-10T15:20:36;624.72;;;564.85;;
54641;SDS011;40536;53.194;5.728;2022-12-10T15:28:26;647.35;;;591.85;;
54641;SDS011;40536;53.194;5.728;2022-12-10T15:30:55;651.65;;;592.50;;
54641;SDS011;40536;53.194;5.728;2022-12-10T15:33:41;660.95;;;604.17;;
54641;SDS011;40536;53.194;5.728;2022-12-10T15:36:31;639.70;;;581.55;;
54641;SDS011;40536;53.194;5.728;2022-12-10T15:39:12;652.90;;;594.50;;
54641;SDS011;40536;53.194;5.728;2022-12-10T15:41:57;648.70;;;591.10;;
54641;SDS011;40536;53.194;5.728;2022-12-10T15:49:45;618.00;;;566.90;;
54641;SDS011;40536;53.194;5.728;2022-12-10T15:52:15;633.88;;;583.80;;
54641;SDS011;40536;53.194;5.728;2022-12-10T15:54:43;629.35;;;569.50;;
54641;SDS011;40536;53.194;5.728;2022-12-10T15:59:46;621.22;;;572.22;;
54641;SDS011;40536;53.194;5.728;2022-12-10T16:05:28;633.85;;;576.75;;
54641;SDS011;40536;53.194;5.728;2022-12-10T16:07:56;609.53;;;561.90;;
54641;SDS011;40536;53.194;5.728;2022-12-10T16:10:27;654.55;;;594.60;;
54641;SDS011;40536;53.194;5.728;2022-12-10T16:12:58;656.72;;;596.33;;
54641;SDS011;40536;53.194;5.728;2022-12-10T16:15:32;672.13;;;609.50;;
54641;SDS011;40536;53.194;5.728;2022-12-10T16:18:01;672.60;;;606.80;;
54641;SDS011;40536;53.194;5.728;2022-12-10T16:20:29;670.60;;;605.63;;
54641;SDS011;40536;53.194;5.728;2022-12-10T16:22:56;693.30;;;622.95;;
54641;SDS011;40536;53.194;5.728;2022-12-10T16:25:24;696.33;;;627.42;;
54641;SDS011;40536;53.194;5.728;2022-12-10T16:27:51;711.88;;;640.42;;
54641;SDS011;40536;53.194;5.728;2022-12-10T16:30:19;708.35;;;637.67;;
54641;SDS011;40536;53.194;5.728;2022-12-10T16:32:50;691.28;;;622.45;;
54641;SDS011;40536;53.194;5.728;2022-12-10T16:35:17;842.88;;;688.90;;